sensor_id;sensor_type;location;lat;lon;timestamp;pressure;altitude;pressure_sealevel;temperature;humidity
22964;BME280;11648;49.306;6.934;2023-01-27T00:00:38;98752.19;;;6.24;66.20
22964;BME280;11648;49.306;6.934;2023-01-27T00:03:05;98760.94;;;6.31;65.85
22964;BME280;11648;49.306;6.934;2023-01-27T00:05:32;98754.72;;;6.20;66.34
22964;BME280;11648;49.306;6.934;2023-01-27T00:07:58;98757.38;;;6.21;66.47
22964;BME280;11648;49.306;6.934;2023-01-27T00:10:25;98758.28;;;6.25;66.57
22964;BME280;11648;49.306;6.934;2023-01-27T00:12:52;98760.91;;;6.29;66.73
22964;BME280;11648;49.306;6.934;2023-01-27T00:15:38;98758.28;;;6.26;66.38
22964;BME280;11648;49.306;6.934;2023-01-27T00:18:05;98761.81;;;6.30;66.91
22964;BME280;11648;49.306;6.934;2023-01-27T00:20:32;98758.34;;;6.31;66.36
22964;BME280;11648;49.306;6.934;2023-01-27T00:23:20;98759.19;;;6.28;66.30
22964;BME280;11648;49.306;6.934;2023-01-27T00:26:09;98757.41;;;6.26;66.53
22964;BME280;11648;49.306;6.934;2023-01-27T00:28:37;98764.34;;;6.22;66.55
22964;BME280;11648;49.306;6.934;2023-01-27T00:31:06;98760.94;;;6.32;66.36
22964;BME280;11648;49.306;6.934;2023-01-27T00:33:35;98759.25;;;6.34;66.91
22964;BME280;11648;49.306;6.934;2023-01-27T00:36:06;98751.38;;;6.33;66.99
22964;BME280;11648;49.306;6.934;2023-01-27T00:38:35;98751.41;;;6.36;66.93
22964;BME280;11648;49.306;6.934;2023-01-27T00:41:09;98754.94;;;6.41;66.60
22964;BME280;11648;49.306;6.934;2023-01-27T00:43:46;98744.47;;;6.39;66.34
22964;BME280;11648;49.306;6.934;2023-01-27T00:46:14;98747.13;;;6.42;66.27
22964;BME280;11648;49.306;6.934;2023-01-27T00:48:41;98735.84;;;6.48;66.43
22964;BME280;11648;49.306;6.934;2023-01-27T00:51:09;98741.94;;;6.47;65.72
22964;BME280;11648;49.306;6.934;2023-01-27T00:53:36;98748.84;;;6.39;66.40
22964;BME280;11648;49.306;6.934;2023-01-27T00:56:03;98740.09;;;6.37;66.21
22964;BME280;11648;49.306;6.934;2023-01-27T00:58:31;98737.50;;;6.38;66.34
22964;BME280;11648;49.306;6.934;2023-01-27T01:00:59;98737.53;;;6.43;66.11
22964;BME280;11648;49.306;6.934;2023-01-27T01:03:27;98740.94;;;6.34;66.45
22964;BME280;11648;49.306;6.934;2023-01-27T01:06:04;98741.00;;;6.39;66.35
22964;BME280;11648;49.306;6.934;2023-01-27T01:08:32;98736.66;;;6.41;66.58
22964;BME280;11648;49.306;6.934;2023-01-27T01:11:03;98741.03;;;6.42;66.18
22964;BME280;11648;49.306;6.934;2023-01-27T01:13:29;98748.94;;;6.47;66.57
22964;BME280;11648;49.306;6.934;2023-01-27T01:15:56;98740.22;;;6.51;66.20
22964;BME280;11648;49.306;6.934;2023-01-27T01:18:23;98747.25;;;6.56;65.98
22964;BME280;11648;49.306;6.934;2023-01-27T01:20:50;98740.31;;;6.60;65.79
22964;BME280;11648;49.306;6.934;2023-01-27T01:23:16;98734.19;;;6.58;65.83
22964;BME280;11648;49.306;6.934;2023-01-27T01:25:51;98741.09;;;6.50;65.92
22964;BME280;11648;49.306;6.934;2023-01-27T01:28:19;98750.69;;;6.49;65.80
22964;BME280;11648;49.306;6.934;2023-01-27T01:30:46;98747.22;;;6.50;65.87
22964;BME280;11648;49.306;6.934;2023-01-27T01:33:13;98748.09;;;6.52;65.73
22964;BME280;11648;49.306;6.934;2023-01-27T01:35:39;98755.09;;;6.53;65.99
22964;BME280;11648;49.306;6.934;2023-01-27T01:38:08;98746.34;;;6.54;65.90
22964;BME280;11648;49.306;6.934;2023-01-27T01:40:42;98747.19;;;6.49;65.45
22964;BME280;11648;49.306;6.934;2023-01-27T01:43:17;98749.03;;;6.57;65.80
22964;BME280;11648;49.306;6.934;2023-01-27T01:45:48;98742.03;;;6.56;65.63
22964;BME280;11648;49.306;6.934;2023-01-27T01:48:26;98747.25;;;6.56;65.53
22964;BME280;11648;49.306;6.934;2023-01-27T01:56:38;98742.97;;;6.63;65.99
22964;BME280;11648;49.306;6.934;2023-01-27T01:59:15;98738.59;;;6.63;65.87
22964;BME280;11648;49.306;6.934;2023-01-27T02:01:42;98736.84;;;6.62;65.85
22964;BME280;11648;49.306;6.934;2023-01-27T02:04:13;98729.94;;;6.67;65.85
22964;BME280;11648;49.306;6.934;2023-01-27T02:06:48;98736.88;;;6.65;65.82
22964;BME280;11648;49.306;6.934;2023-01-27T02:09:19;98734.31;;;6.70;65.96
22964;BME280;11648;49.306;6.934;2023-01-27T02:11:46;98725.56;;;6.66;65.56
22964;BME280;11648;49.306;6.934;2023-01-27T02:14:15;98721.19;;;6.64;65.74
22964;BME280;11648;49.306;6.934;2023-01-27T02:16:43;98722.94;;;6.66;66.01
22964;BME280;11648;49.306;6.934;2023-01-27T02:19:14;98725.53;;;6.65;65.75
22964;BME280;11648;49.306;6.934;2023-01-27T02:21:42;98720.22;;;6.56;65.58
22964;BME280;11648;49.306;6.934;2023-01-27T02:24:10;98721.13;;;6.59;65.82
22964;BME280;11648;49.306;6.934;2023-01-27T02:26:41;98713.25;;;6.58;65.62
22964;BME280;11648;49.306;6.934;2023-01-27T02:29:14;98715.03;;;6.59;65.68
22964;BME280;11648;49.306;6.934;2023-01-27T02:31:41;98715.03;;;6.57;65.90
22964;BME280;11648;49.306;6.934;2023-01-27T02:34:12;98727.25;;;6.60;66.16
22964;BME280;11648;49.306;6.934;2023-01-27T02:36:47;98712.38;;;6.56;65.94
22964;BME280;11648;49.306;6.934;2023-01-27T02:39:17;98714.22;;;6.64;65.84
22964;BME280;11648;49.306;6.934;2023-01-27T02:41:48;98716.84;;;6.64;65.66
22964;BME280;11648;49.306;6.934;2023-01-27T02:44:16;98715.94;;;6.61;65.43
22964;BME280;11648;49.306;6.934;2023-01-27T02:46:43;98715.91;;;6.59;65.58
22964;BME280;11648;49.306;6.934;2023-01-27T02:49:10;98718.50;;;6.56;65.59
22964;BME280;11648;49.306;6.934;2023-01-27T02:51:37;98725.50;;;6.57;65.60
22964;BME280;11648;49.306;6.934;2023-01-27T02:54:05;98720.22;;;6.56;66.22
22964;BME280;11648;49.306;6.934;2023-01-27T02:56:32;98726.34;;;6.56;65.85
22964;BME280;11648;49.306;6.934;2023-01-27T02:58:59;98721.16;;;6.61;66.03
22964;BME280;11648;49.306;6.934;2023-01-27T03:01:31;98723.81;;;6.67;65.44
22964;BME280;11648;49.306;6.934;2023-01-27T03:03:59;98718.59;;;6.68;65.22
22964;BME280;11648;49.306;6.934;2023-01-27T03:06:26;98722.09;;;6.67;65.53
22964;BME280;11648;49.306;6.934;2023-01-27T03:08:52;98714.22;;;6.69;65.73
22964;BME280;11648;49.306;6.934;2023-01-27T03:11:20;98719.47;;;6.69;65.24
22964;BME280;11648;49.306;6.934;2023-01-27T03:14:08;98723.84;;;6.70;65.52
22964;BME280;11648;49.306;6.934;2023-01-27T03:16:35;98723.00;;;6.71;65.68
22964;BME280;11648;49.306;6.934;2023-01-27T03:19:20;98717.66;;;6.62;66.27
22964;BME280;11648;49.306;6.934;2023-01-27T03:21:47;98724.69;;;6.64;66.42
22964;BME280;11648;49.306;6.934;2023-01-27T03:24:19;98721.16;;;6.62;66.05
22964;BME280;11648;49.306;6.934;2023-01-27T03:26:46;98724.56;;;6.52;65.83
22964;BME280;11648;49.306;6.934;2023-01-27T03:29:15;98728.06;;;6.53;66.07
22964;BME280;11648;49.306;6.934;2023-01-27T03:32:00;98726.25;;;6.47;66.18
22964;BME280;11648;49.306;6.934;2023-01-27T03:34:28;98724.50;;;6.46;66.60
22964;BME280;11648;49.306;6.934;2023-01-27T03:37:03;98721.88;;;6.47;66.34
22964;BME280;11648;49.306;6.934;2023-01-27T03:39:49;98710.53;;;6.47;66.72
22964;BME280;11648;49.306;6.934;2023-01-27T03:42:35;98722.78;;;6.51;66.42
22964;BME280;11648;49.306;6.934;2023-01-27T03:45:20;98718.44;;;6.52;66.29
22964;BME280;11648;49.306;6.934;2023-01-27T03:48:05;98718.47;;;6.53;66.18
22964;BME280;11648;49.306;6.934;2023-01-27T03:50:32;98714.16;;;6.61;66.00
22964;BME280;11648;49.306;6.934;2023-01-27T03:53:09;98730.69;;;6.56;66.74
22964;BME280;11648;49.306;6.934;2023-01-27T03:55:37;98721.19;;;6.64;66.55
22964;BME280;11648;49.306;6.934;2023-01-27T03:58:24;98719.44;;;6.66;66.71
22964;BME280;11648;49.306;6.934;2023-01-27T04:00:53;98719.44;;;6.66;66.28
22964;BME280;11648;49.306;6.934;2023-01-27T04:03:22;98721.16;;;6.62;65.66
22964;BME280;11648;49.306;6.934;2023-01-27T04:06:11;98712.47;;;6.66;65.92
22964;BME280;11648;49.306;6.934;2023-01-27T04:08:57;98722.09;;;6.67;66.18
22964;BME280;11648;49.306;6.934;2023-01-27T04:11:25;98720.28;;;6.65;66.24
22964;BME280;11648;49.306;6.934;2023-01-27T04:14:11;98720.38;;;6.75;66.29
22964;BME280;11648;49.306;6.934;2023-01-27T04:16:38;98720.38;;;6.74;66.24
22964;BME280;11648;49.306;6.934;2023-01-27T04:19:07;98718.66;;;6.76;66.03
22964;BME280;11648;49.306;6.934;2023-01-27T04:21:34;98713.44;;;6.74;66.09
22964;BME280;11648;49.306;6.934;2023-01-27T04:24:02;98711.69;;;6.75;65.98
22964;BME280;11648;49.306;6.934;2023-01-27T04:26:30;98710.81;;;6.77;65.75
22964;BME280;11648;49.306;6.934;2023-01-27T04:29:01;98708.22;;;6.80;65.93
22964;BME280;11648;49.306;6.934;2023-01-27T04:31:28;98711.69;;;6.79;66.12
22964;BME280;11648;49.306;6.934;2023-01-27T04:33:55;98710.88;;;6.82;66.02
22964;BME280;11648;49.306;6.934;2023-01-27T04:36:22;98708.22;;;6.79;66.43
22964;BME280;11648;49.306;6.934;2023-01-27T04:38:48;98713.50;;;6.82;66.45
22964;BME280;11648;49.306;6.934;2023-01-27T04:41:15;98713.47;;;6.83;66.51
22964;BME280;11648;49.306;6.934;2023-01-27T04:43:42;98715.22;;;6.83;66.57
22964;BME280;11648;49.306;6.934;2023-01-27T04:46:09;98711.78;;;6.88;66.74
22964;BME280;11648;49.306;6.934;2023-01-27T04:48:35;98723.06;;;6.78;66.43
22964;BME280;11648;49.306;6.934;2023-01-27T04:51:02;98723.03;;;6.77;67.01
22964;BME280;11648;49.306;6.934;2023-01-27T04:53:29;98720.38;;;6.74;67.20
22964;BME280;11648;49.306;6.934;2023-01-27T04:56:01;98730.91;;;6.80;67.48
22964;BME280;11648;49.306;6.934;2023-01-27T04:58:28;98721.31;;;6.80;67.41
22964;BME280;11648;49.306;6.934;2023-01-27T05:00:55;98728.31;;;6.84;67.09
22964;BME280;11648;49.306;6.934;2023-01-27T05:03:22;98729.22;;;6.85;67.18
22964;BME280;11648;49.306;6.934;2023-01-27T05:05:48;98730.09;;;6.85;66.93
22964;BME280;11648;49.306;6.934;2023-01-27T05:08:15;98733.59;;;6.90;67.13
22964;BME280;11648;49.306;6.934;2023-01-27T05:10:42;98732.72;;;6.90;67.31
22964;BME280;11648;49.306;6.934;2023-01-27T05:13:10;98737.94;;;6.87;66.88
22964;BME280;11648;49.306;6.934;2023-01-27T05:15:37;98737.94;;;6.90;67.14
22964;BME280;11648;49.306;6.934;2023-01-27T05:18:04;98737.94;;;6.90;67.45
22964;BME280;11648;49.306;6.934;2023-01-27T05:20:31;98745.84;;;6.93;67.17
22964;BME280;11648;49.306;6.934;2023-01-27T05:22:58;98751.97;;;6.95;67.20
22964;BME280;11648;49.306;6.934;2023-01-27T05:25:43;98755.50;;;7.00;66.89
22964;BME280;11648;49.306;6.934;2023-01-27T05:28:11;98749.41;;;7.03;66.37
22964;BME280;11648;49.306;6.934;2023-01-27T05:30:37;98752.91;;;7.05;66.76
22964;BME280;11648;49.306;6.934;2023-01-27T05:33:04;98750.31;;;7.06;66.91
22964;BME280;11648;49.306;6.934;2023-01-27T05:35:32;98750.28;;;7.03;66.96
22964;BME280;11648;49.306;6.934;2023-01-27T05:37:59;98757.31;;;7.07;66.63
22964;BME280;11648;49.306;6.934;2023-01-27T05:40:26;98759.91;;;7.06;66.93
22964;BME280;11648;49.306;6.934;2023-01-27T05:42:53;98755.53;;;7.03;66.84
22964;BME280;11648;49.306;6.934;2023-01-27T05:45:19;98765.91;;;6.97;67.21
22964;BME280;11648;49.306;6.934;2023-01-27T05:47:50;98765.94;;;6.99;67.18
22964;BME280;11648;49.306;6.934;2023-01-27T05:50:17;98774.66;;;7.01;67.21
22964;BME280;11648;49.306;6.934;2023-01-27T05:52:44;98772.06;;;7.01;67.22
22964;BME280;11648;49.306;6.934;2023-01-27T05:55:11;98768.56;;;6.99;67.10
22964;BME280;11648;49.306;6.934;2023-01-27T05:57:38;98774.66;;;6.97;67.34
22964;BME280;11648;49.306;6.934;2023-01-27T06:00:05;98780.69;;;6.90;67.19
22964;BME280;11648;49.306;6.934;2023-01-27T06:02:33;98788.56;;;6.90;67.12
22964;BME280;11648;49.306;6.934;2023-01-27T06:05:00;98781.63;;;6.95;67.27
22964;BME280;11648;49.306;6.934;2023-01-27T06:07:26;98783.19;;;6.74;67.40
22964;BME280;11648;49.306;6.934;2023-01-27T06:09:53;98790.19;;;6.79;67.42
22964;BME280;11648;49.306;6.934;2023-01-27T06:12:20;98790.94;;;6.63;67.53
22964;BME280;11648;49.306;6.934;2023-01-27T06:14:47;98791.88;;;6.71;67.92
22964;BME280;11648;49.306;6.934;2023-01-27T06:17:13;98796.31;;;6.78;67.87
22964;BME280;11648;49.306;6.934;2023-01-27T06:19:40;98793.56;;;6.66;67.59
22964;BME280;11648;49.306;6.934;2023-01-27T06:22:07;98794.53;;;6.77;67.63
22964;BME280;11648;49.306;6.934;2023-01-27T06:24:33;98797.09;;;6.73;67.67
22964;BME280;11648;49.306;6.934;2023-01-27T06:27:00;98784.03;;;6.71;67.39
22964;BME280;11648;49.306;6.934;2023-01-27T06:29:28;98797.75;;;6.51;67.39
22964;BME280;11648;49.306;6.934;2023-01-27T06:31:56;98798.69;;;6.56;67.51
22964;BME280;11648;49.306;6.934;2023-01-27T06:34:23;98794.19;;;6.42;67.88
22964;BME280;11648;49.306;6.934;2023-01-27T06:36:52;98798.59;;;6.45;67.94
22964;BME280;11648;49.306;6.934;2023-01-27T06:39:19;98797.72;;;6.46;67.72
22964;BME280;11648;49.306;6.934;2023-01-27T06:41:48;98804.66;;;6.44;68.56
22964;BME280;11648;49.306;6.934;2023-01-27T06:44:15;98801.22;;;6.47;68.07
22964;BME280;11648;49.306;6.934;2023-01-27T06:46:41;98808.19;;;6.47;68.18
22964;BME280;11648;49.306;6.934;2023-01-27T06:49:08;98810.00;;;6.53;68.09
22964;BME280;11648;49.306;6.934;2023-01-27T06:51:38;98806.56;;;6.59;68.08
22964;BME280;11648;49.306;6.934;2023-01-27T06:54:04;98816.22;;;6.66;67.82
22964;BME280;11648;49.306;6.934;2023-01-27T06:56:31;98809.34;;;6.74;67.78
22964;BME280;11648;49.306;6.934;2023-01-27T06:58:58;98817.97;;;6.65;67.65
22964;BME280;11648;49.306;6.934;2023-01-27T07:01:24;98811.78;;;6.57;67.30
22964;BME280;11648;49.306;6.934;2023-01-27T07:03:51;98812.66;;;6.58;67.63
22964;BME280;11648;49.306;6.934;2023-01-27T07:06:18;98817.69;;;6.39;67.97
22964;BME280;11648;49.306;6.934;2023-01-27T07:08:45;98825.31;;;6.20;68.45
22964;BME280;11648;49.306;6.934;2023-01-27T07:11:13;98823.69;;;6.31;68.36
22964;BME280;11648;49.306;6.934;2023-01-27T07:13:39;98828.88;;;6.25;68.32
22964;BME280;11648;49.306;6.934;2023-01-27T07:16:06;98829.50;;;6.06;69.05
22964;BME280;11648;49.306;6.934;2023-01-27T07:18:33;98833.13;;;6.17;68.86
22964;BME280;11648;49.306;6.934;2023-01-27T07:21:02;98841.81;;;6.16;69.21
22964;BME280;11648;49.306;6.934;2023-01-27T07:23:29;98838.31;;;6.15;69.00
22964;BME280;11648;49.306;6.934;2023-01-27T07:25:56;98842.00;;;6.31;68.84
22964;BME280;11648;49.306;6.934;2023-01-27T07:28:26;98844.69;;;6.35;69.15
22964;BME280;11648;49.306;6.934;2023-01-27T07:30:52;98847.31;;;6.38;68.92
22964;BME280;11648;49.306;6.934;2023-01-27T07:33:19;98842.09;;;6.40;68.75
22964;BME280;11648;49.306;6.934;2023-01-27T07:35:47;98838.63;;;6.41;68.79
22964;BME280;11648;49.306;6.934;2023-01-27T07:38:15;98850.81;;;6.40;68.52
22964;BME280;11648;49.306;6.934;2023-01-27T07:40:42;98858.81;;;6.54;68.79
22964;BME280;11648;49.306;6.934;2023-01-27T07:43:09;98856.16;;;6.50;68.16
22964;BME280;11648;49.306;6.934;2023-01-27T07:45:38;98862.31;;;6.53;68.31
22964;BME280;11648;49.306;6.934;2023-01-27T07:48:07;98852.75;;;6.57;68.81
22964;BME280;11648;49.306;6.934;2023-01-27T07:50:34;98858.03;;;6.60;68.44
22964;BME280;11648;49.306;6.934;2023-01-27T07:53:03;98857.22;;;6.68;68.13
22964;BME280;11648;49.306;6.934;2023-01-27T07:55:31;98866.88;;;6.72;68.35
22964;BME280;11648;49.306;6.934;2023-01-27T07:57:58;98869.50;;;6.74;67.89
22964;BME280;11648;49.306;6.934;2023-01-27T08:00:25;98869.47;;;6.72;67.62
22964;BME280;11648;49.306;6.934;2023-01-27T08:02:54;98871.16;;;6.66;67.42
22964;BME280;11648;49.306;6.934;2023-01-27T08:05:21;98877.22;;;6.60;67.83
22964;BME280;11648;49.306;6.934;2023-01-27T08:07:49;98864.91;;;6.50;67.74
22964;BME280;11648;49.306;6.934;2023-01-27T08:10:16;98872.81;;;6.56;67.94
22964;BME280;11648;49.306;6.934;2023-01-27T08:12:44;98872.78;;;6.53;68.23
22964;BME280;11648;49.306;6.934;2023-01-27T08:15:11;98870.28;;;6.65;67.69
22964;BME280;11648;49.306;6.934;2023-01-27T08:17:38;98865.06;;;6.64;67.96
22964;BME280;11648;49.306;6.934;2023-01-27T08:20:06;98865.06;;;6.64;67.73
22964;BME280;11648;49.306;6.934;2023-01-27T08:22:33;98866.91;;;6.74;67.97
22964;BME280;11648;49.306;6.934;2023-01-27T08:24:59;98858.25;;;6.81;67.48
22964;BME280;11648;49.306;6.934;2023-01-27T08:27:26;98854.81;;;6.86;67.56
22964;BME280;11648;49.306;6.934;2023-01-27T08:29:53;98864.41;;;6.87;66.92
22964;BME280;11648;49.306;6.934;2023-01-27T08:32:20;98865.31;;;6.89;67.00
22964;BME280;11648;49.306;6.934;2023-01-27T08:34:46;98860.75;;;6.72;66.35
22964;BME280;11648;49.306;6.934;2023-01-27T08:37:13;98870.25;;;6.61;66.30
22964;BME280;11648;49.306;6.934;2023-01-27T08:39:40;98873.91;;;6.75;66.13
22964;BME280;11648;49.306;6.934;2023-01-27T08:42:06;98870.44;;;6.80;66.23
22964;BME280;11648;49.306;6.934;2023-01-27T08:44:33;98871.38;;;6.87;65.81
22964;BME280;11648;49.306;6.934;2023-01-27T08:47:00;98870.47;;;6.82;65.86
22964;BME280;11648;49.306;6.934;2023-01-27T08:49:26;98868.72;;;6.81;65.92
22964;BME280;11648;49.306;6.934;2023-01-27T08:51:53;98872.25;;;6.84;65.64
22964;BME280;11648;49.306;6.934;2023-01-27T08:54:20;98882.69;;;6.81;65.43
22964;BME280;11648;49.306;6.934;2023-01-27T08:56:47;98882.69;;;6.83;65.50
22964;BME280;11648;49.306;6.934;2023-01-27T08:59:13;98886.22;;;6.85;65.89
22964;BME280;11648;49.306;6.934;2023-01-27T09:01:40;98887.81;;;6.75;65.88
22964;BME280;11648;49.306;6.934;2023-01-27T09:04:07;98886.97;;;6.75;66.10
22964;BME280;11648;49.306;6.934;2023-01-27T09:06:34;98898.38;;;6.83;66.13
22964;BME280;11648;49.306;6.934;2023-01-27T09:09:00;98893.97;;;6.77;65.93
22964;BME280;11648;49.306;6.934;2023-01-27T09:11:42;98892.22;;;6.75;66.34
22964;BME280;11648;49.306;6.934;2023-01-27T09:14:10;98907.03;;;6.74;66.53
22964;BME280;11648;49.306;6.934;2023-01-27T09:16:37;98909.66;;;6.77;66.09
22964;BME280;11648;49.306;6.934;2023-01-27T09:19:04;98908.91;;;6.86;66.13
22964;BME280;11648;49.306;6.934;2023-01-27T09:21:30;98913.38;;;6.97;66.41
22964;BME280;11648;49.306;6.934;2023-01-27T09:23:57;98908.94;;;6.90;66.31
22964;BME280;11648;49.306;6.934;2023-01-27T09:26:24;98918.53;;;6.91;66.17
22964;BME280;11648;49.306;6.934;2023-01-27T09:28:51;98915.13;;;6.99;66.20
22964;BME280;11648;49.306;6.934;2023-01-27T09:31:18;98917.97;;;7.20;65.94
22964;BME280;11648;49.306;6.934;2023-01-27T09:33:45;98921.63;;;7.38;66.03
22964;BME280;11648;49.306;6.934;2023-01-27T09:36:13;98916.44;;;7.44;64.89
22964;BME280;11648;49.306;6.934;2023-01-27T09:53:05;98933.75;;;7.27;65.46
22964;BME280;11648;49.306;6.934;2023-01-27T10:03:58;98937.50;;;7.57;64.52
22964;BME280;11648;49.306;6.934;2023-01-27T10:29:08;98937.41;;;7.46;64.65
22964;BME280;11648;49.306;6.934;2023-01-27T10:34:25;98938.41;;;7.62;65.22
22964;BME280;11648;49.306;6.934;2023-01-27T10:50:29;98916.31;;;8.44;61.40
22964;BME280;11648;49.306;6.934;2023-01-27T10:53:16;98920.50;;;8.21;61.36
22964;BME280;11648;49.306;6.934;2023-01-27T11:00:53;98922.75;;;7.66;61.43
22964;BME280;11648;49.306;6.934;2023-01-27T11:03:48;98916.63;;;7.69;61.86
22964;BME280;11648;49.306;6.934;2023-01-27T11:06:21;98926.19;;;7.59;62.14
22964;BME280;11648;49.306;6.934;2023-01-27T11:09:16;98921.88;;;7.69;62.72
22964;BME280;11648;49.306;6.934;2023-01-27T11:11:38;98926.41;;;7.86;61.98
22964;BME280;11648;49.306;6.934;2023-01-27T11:14:20;98922.91;;;7.90;62.20
22964;BME280;11648;49.306;6.934;2023-01-27T11:16:57;98914.31;;;8.10;61.78
22964;BME280;11648;49.306;6.934;2023-01-27T11:19:52;98902.16;;;8.21;61.28
22964;BME280;11648;49.306;6.934;2023-01-27T11:22:26;98909.16;;;8.22;61.76
22964;BME280;11648;49.306;6.934;2023-01-27T11:25:06;98906.63;;;8.35;61.27
22964;BME280;11648;49.306;6.934;2023-01-27T11:30:30;98902.16;;;8.24;61.53
22964;BME280;11648;49.306;6.934;2023-01-27T11:33:23;98898.56;;;8.10;61.58
22964;BME280;11648;49.306;6.934;2023-01-27T11:35:53;98896.16;;;8.40;61.51
22964;BME280;11648;49.306;6.934;2023-01-27T11:38:21;98893.53;;;8.40;62.11
22964;BME280;11648;49.306;6.934;2023-01-27T11:40:50;98891.78;;;8.39;60.70
22964;BME280;11648;49.306;6.934;2023-01-27T11:43:23;98900.53;;;8.41;61.28
22964;BME280;11648;49.306;6.934;2023-01-27T11:46:00;98896.16;;;8.40;61.12
22964;BME280;11648;49.306;6.934;2023-01-27T11:48:37;98896.00;;;8.20;61.53
22964;BME280;11648;49.306;6.934;2023-01-27T11:51:31;98902.31;;;8.43;61.06
22964;BME280;11648;49.306;6.934;2023-01-27T11:54:14;98895.41;;;8.65;60.34
22964;BME280;11648;49.306;6.934;2023-01-27T11:56:46;98893.69;;;8.76;60.31
22964;BME280;11648;49.306;6.934;2023-01-27T11:59:21;98896.28;;;8.78;59.72
22964;BME280;11648;49.306;6.934;2023-01-27T12:07:09;98900.50;;;8.32;60.38
22964;BME280;11648;49.306;6.934;2023-01-27T12:09:40;98902.97;;;8.11;61.31
22964;BME280;11648;49.306;6.934;2023-01-27T12:12:23;98901.19;;;8.07;61.29
22964;BME280;11648;49.306;6.934;2023-01-27T12:14:54;98891.66;;;8.24;61.26
22964;BME280;11648;49.306;6.934;2023-01-27T12:19:56;98899.50;;;8.19;61.66
22964;BME280;11648;49.306;6.934;2023-01-27T12:22:32;98896.94;;;8.25;61.08
22964;BME280;11648;49.306;6.934;2023-01-27T12:25:03;98880.28;;;8.23;60.62
22964;BME280;11648;49.306;6.934;2023-01-27T12:27:38;98887.31;;;8.27;60.79
22964;BME280;11648;49.306;6.934;2023-01-27T12:30:16;98900.28;;;8.05;60.73
22964;BME280;11648;49.306;6.934;2023-01-27T12:32:46;98889.84;;;8.12;61.27
22964;BME280;11648;49.306;6.934;2023-01-27T12:35:27;98889.94;;;8.26;61.54
22964;BME280;11648;49.306;6.934;2023-01-27T12:38:12;98893.59;;;8.55;61.29
22964;BME280;11648;49.306;6.934;2023-01-27T12:40:42;98886.69;;;8.78;60.59
22964;BME280;11648;49.306;6.934;2023-01-27T12:43:18;98888.47;;;8.99;59.59
22964;BME280;11648;49.306;6.934;2023-01-27T12:46:26;98875.38;;;9.05;58.75
22964;BME280;11648;49.306;6.934;2023-01-27T12:48:53;98875.34;;;8.93;59.04
22964;BME280;11648;49.306;6.934;2023-01-27T12:51:36;98882.34;;;8.83;59.43
22964;BME280;11648;49.306;6.934;2023-01-27T12:54:24;98870.91;;;8.75;60.17
22964;BME280;11648;49.306;6.934;2023-01-27T12:56:52;98881.38;;;8.66;59.54
22964;BME280;11648;49.306;6.934;2023-01-27T12:59:22;98871.50;;;8.11;60.07
22964;BME280;11648;49.306;6.934;2023-01-27T13:02:19;98880.25;;;8.14;61.02
22964;BME280;11648;49.306;6.934;2023-01-27T13:04:53;98886.25;;;7.93;61.40
22964;BME280;11648;49.306;6.934;2023-01-27T13:07:27;98887.09;;;7.89;61.99
22964;BME280;11648;49.306;6.934;2023-01-27T13:09:58;98888.84;;;7.86;61.52
22964;BME280;11648;49.306;6.934;2023-01-27T13:12:31;98882.78;;;7.96;61.96
22964;BME280;11648;49.306;6.934;2023-01-27T13:15:19;98884.50;;;7.95;61.80
22964;BME280;11648;49.306;6.934;2023-01-27T13:20:40;98890.47;;;7.73;62.15
22964;BME280;11648;49.306;6.934;2023-01-27T13:23:16;98880.03;;;7.81;62.20
22964;BME280;11648;49.306;6.934;2023-01-27T13:26:01;98883.47;;;7.72;63.00
22964;BME280;11648;49.306;6.934;2023-01-27T13:31:27;98880.09;;;7.88;62.60
22964;BME280;11648;49.306;6.934;2023-01-27T13:36:44;98886.03;;;7.60;64.19
22964;BME280;11648;49.306;6.934;2023-01-27T13:39:17;98896.41;;;7.51;64.90
22964;BME280;11648;49.306;6.934;2023-01-27T13:41:48;98893.06;;;7.70;65.04
22964;BME280;11648;49.306;6.934;2023-01-27T13:44:44;98893.09;;;7.73;64.28
22964;BME280;11648;49.306;6.934;2023-01-27T13:47:19;98900.13;;;7.77;64.28
22964;BME280;11648;49.306;6.934;2023-01-27T13:49:53;98898.31;;;7.67;65.40
22964;BME280;11648;49.306;6.934;2023-01-27T13:52:21;98903.78;;;8.04;63.94
22964;BME280;11648;49.306;6.934;2023-01-27T13:54:48;98896.72;;;7.92;63.92
22964;BME280;11648;49.306;6.934;2023-01-27T13:59:58;98914.91;;;7.72;63.49
22964;BME280;11648;49.306;6.934;2023-01-27T14:03:03;98911.53;;;7.85;63.85
22964;BME280;11648;49.306;6.934;2023-01-27T14:11:42;98908.03;;;7.82;63.15
22964;BME280;11648;49.306;6.934;2023-01-27T14:23:05;98894.09;;;7.92;62.41
22964;BME280;11648;49.306;6.934;2023-01-27T14:25:48;98905.50;;;7.99;61.87
22964;BME280;11648;49.306;6.934;2023-01-27T14:28:27;98903.91;;;8.19;61.46
22964;BME280;11648;49.306;6.934;2023-01-27T14:31:02;98906.50;;;8.19;60.95
22964;BME280;11648;49.306;6.934;2023-01-27T14:36:29;98907.41;;;8.24;61.00
22964;BME280;11648;49.306;6.934;2023-01-27T14:42:11;98915.34;;;8.31;60.49
22964;BME280;11648;49.306;6.934;2023-01-27T14:50:36;98922.09;;;7.97;61.40
22964;BME280;11648;49.306;6.934;2023-01-27T14:53:19;98929.09;;;7.97;61.70
22964;BME280;11648;49.306;6.934;2023-01-27T15:01:37;98939.28;;;7.59;62.41
22964;BME280;11648;49.306;6.934;2023-01-27T15:06:54;98953.94;;;7.39;62.98
22964;BME280;11648;49.306;6.934;2023-01-27T15:25:58;98957.56;;;7.53;62.68
22964;BME280;11648;49.306;6.934;2023-01-27T15:28:29;98951.50;;;7.59;61.87
22964;BME280;11648;49.306;6.934;2023-01-27T15:41:37;98967.03;;;7.36;62.34
22964;BME280;11648;49.306;6.934;2023-01-27T15:44:18;98969.56;;;7.28;62.18
22964;BME280;11648;49.306;6.934;2023-01-27T15:47:01;98971.47;;;7.46;61.86
22964;BME280;11648;49.306;6.934;2023-01-27T15:49:34;98978.50;;;7.50;62.20
22964;BME280;11648;49.306;6.934;2023-01-27T15:52:21;98986.38;;;7.55;61.84
22964;BME280;11648;49.306;6.934;2023-01-27T15:54:50;98980.13;;;7.39;62.51
22964;BME280;11648;49.306;6.934;2023-01-27T15:59:52;98980.94;;;7.33;62.75
22964;BME280;11648;49.306;6.934;2023-01-27T16:02:28;98979.94;;;7.22;63.09
22964;BME280;11648;49.306;6.934;2023-01-27T16:05:46;98983.56;;;7.32;63.11
22964;BME280;11648;49.306;6.934;2023-01-27T16:07:56;98994.91;;;7.32;62.82
22964;BME280;11648;49.306;6.934;2023-01-27T16:10:28;98993.25;;;7.42;62.90